Time;durP1;ratioP1;P1;durP2;ratioP2;P2;SDS_P1;SDS_P2;PMS_P1;PMS_P2;Temp;Humidity;BMP_temperature;BMP_pressure;BME280_temperature;BME280_humidity;BME280_pressure;Samples;Min_cycle;Max_cycle;Signal;HPM_P1;HPM_P2
2021/08/14 00:00:05;;;;;;;8.93;6.43;;;23.00;73.10;;;;;;4979234;28;20080;-65
2021/08/14 00:02:31;;;;;;;8.00;6.32;;;22.90;73.20;;;;;;4981568;28;20031;-64
2021/08/14 00:04:56;;;;;;;9.07;6.38;;;23.00;73.20;;;;;;4979218;28;20058;-64
2021/08/14 00:07:22;;;;;;;7.60;6.60;;;22.90;73.20;;;;;;4981211;28;20034;-65
2021/08/14 00:09:48;;;;;;;7.82;6.47;;;22.80;73.20;;;;;;4985562;28;20030;-65
2021/08/14 00:12:14;;;;;;;9.57;6.60;;;22.80;73.30;;;;;;4981550;28;20033;-65
2021/08/14 00:14:39;;;;;;;11.68;6.13;;;22.80;73.40;;;;;;4976565;28;20034;-65
2021/08/14 00:17:05;;;;;;;7.97;6.10;;;22.70;73.40;;;;;;4983752;28;20038;-65
2021/08/14 00:19:31;;;;;;;7.22;6.22;;;22.70;73.50;;;;;;4986012;28;20038;-65
2021/08/14 00:21:57;;;;;;;7.43;6.30;;;22.60;73.70;;;;;;4981856;28;20081;-65
2021/08/14 00:24:22;;;;;;;8.48;5.97;;;22.60;74.00;;;;;;4979932;28;20108;-64
2021/08/14 00:26:49;;;;;;;7.03;6.32;;;22.60;73.90;;;;;;4982439;28;20078;-65
2021/08/14 00:29:15;;;;;;;8.88;5.63;;;22.60;74.00;;;;;;4983212;28;21979;-64
2021/08/14 00:31:40;;;;;;;8.45;6.35;;;22.50;73.80;;;;;;4991458;28;20521;-64
2021/08/14 00:34:06;;;;;;;8.57;5.93;;;22.50;74.00;;;;;;4986228;28;20056;-65
2021/08/14 00:36:31;;;;;;;6.82;6.05;;;22.50;74.00;;;;;;4981874;28;20042;-64
2021/08/14 00:38:57;;;;;;;8.27;6.25;;;22.50;74.90;;;;;;4976603;28;20486;-65
2021/08/14 00:41:23;;;;;;;10.00;6.63;;;22.50;73.90;;;;;;4982722;28;20134;-65
2021/08/14 00:43:49;;;;;;;8.65;6.18;;;22.40;74.00;;;;;;4985792;28;20038;-64
2021/08/14 00:46:17;;;;;;;6.53;5.80;;;22.40;74.20;;;;;;4978313;28;20039;-64
2021/08/14 00:48:43;;;;;;;7.78;6.03;;;22.40;74.10;;;;;;4972776;28;20038;-64
2021/08/14 00:51:09;;;;;;;7.10;6.30;;;22.40;74.20;;;;;;4981169;28;20546;-64
2021/08/14 00:53:35;;;;;;;6.55;5.80;;;22.40;75.40;;;;;;4994439;28;20039;-64
2021/08/14 00:56:01;;;;;;;8.45;6.07;;;22.40;74.60;;;;;;4981699;28;20038;-65
2021/08/14 00:58:28;;;;;;;6.57;5.88;;;22.40;74.40;;;;;;4983158;28;20031;-65
2021/08/14 01:00:56;;;;;;;9.05;6.28;;;22.30;74.60;;;;;;4971153;28;20476;-64
2021/08/14 01:03:22;;;;;;;7.47;6.28;;;22.30;74.60;;;;;;4978747;28;20030;-64
2021/08/14 01:05:48;;;;;;;6.82;6.07;;;22.40;75.60;;;;;;4978017;28;20031;-64
2021/08/14 01:08:14;;;;;;;8.57;6.63;;;22.30;74.70;;;;;;4984911;28;20113;-65
2021/08/14 01:10:41;;;;;;;6.53;5.88;;;22.30;74.70;;;;;;4993784;28;20098;-64
2021/08/14 01:13:06;;;;;;;11.05;6.28;;;22.30;74.60;;;;;;4986594;28;20033;-65
2021/08/14 01:15:32;;;;;;;7.10;6.18;;;22.30;74.80;;;;;;4979716;28;20042;-64
2021/08/14 01:17:58;;;;;;;6.65;5.88;;;22.30;75.60;;;;;;4975333;28;20089;-64
2021/08/14 01:20:24;;;;;;;7.40;6.30;;;22.30;74.80;;;;;;4978070;28;20084;-64
2021/08/14 01:22:50;;;;;;;7.85;6.40;;;22.30;75.00;;;;;;4979165;28;20038;-64
2021/08/14 01:25:17;;;;;;;10.27;5.95;;;22.30;74.90;;;;;;4980810;28;20038;-64
2021/08/14 01:27:43;;;;;;;6.40;5.65;;;22.30;75.00;;;;;;4981101;28;20038;-64
2021/08/14 01:30:11;;;;;;;6.65;5.95;;;22.30;74.70;;;;;;4980407;28;20884;-64
2021/08/14 01:32:37;;;;;;;7.95;6.40;;;22.30;74.90;;;;;;4975413;28;20093;-64
2021/08/14 01:35:04;;;;;;;8.45;6.15;;;22.30;75.00;;;;;;4991060;28;20117;-64
2021/08/14 01:37:31;;;;;;;8.82;6.20;;;22.30;74.90;;;;;;4978667;28;20058;-64
2021/08/14 01:39:57;;;;;;;10.10;6.90;;;22.30;74.90;;;;;;4985424;28;20125;-64
2021/08/14 01:42:23;;;;;;;8.20;6.57;;;22.30;74.90;;;;;;4984773;28;20633;-64
2021/08/14 01:44:50;;;;;;;8.27;6.78;;;22.30;75.00;;;;;;4980544;28;20121;-64
2021/08/14 01:47:15;;;;;;;7.45;6.43;;;22.30;75.30;;;;;;4973834;28;20093;-64
2021/08/14 01:49:41;;;;;;;7.63;6.63;;;22.40;75.10;;;;;;4975504;28;20112;-65
2021/08/14 01:52:14;;;;;;;9.73;6.63;;;22.40;75.30;;;;;;4980912;28;20026;-64
2021/08/14 01:54:40;;;;;;;8.50;6.80;;;22.40;75.80;;;;;;4977905;28;20119;-64
2021/08/14 01:57:07;;;;;;;8.95;6.97;;;22.40;75.60;;;;;;4976885;28;20111;-64
2021/08/14 01:59:33;;;;;;;7.35;6.53;;;22.40;75.60;;;;;;4986081;28;20034;-65
2021/08/14 02:02:00;;;;;;;8.02;6.65;;;22.40;75.60;;;;;;4979754;28;20050;-64
2021/08/14 02:04:25;;;;;;;8.13;6.28;;;22.40;75.30;;;;;;4978748;28;20027;-65
2021/08/14 02:06:51;;;;;;;10.40;6.35;;;22.40;75.30;;;;;;4979255;28;20386;-64
2021/08/14 02:09:17;;;;;;;7.10;6.40;;;22.40;75.50;;;;;;4983617;28;20034;-64
2021/08/14 02:11:42;;;;;;;8.00;6.43;;;22.40;75.40;;;;;;4975553;28;20101;-65
2021/08/14 02:14:08;;;;;;;8.88;6.15;;;22.40;75.30;;;;;;4978469;28;20417;-65
2021/08/14 02:16:34;;;;;;;6.90;6.05;;;22.40;75.40;;;;;;4997691;28;20406;-64
2021/08/14 02:19:01;;;;;;;10.05;6.40;;;22.40;75.20;;;;;;4978812;28;20031;-64
2021/08/14 02:21:27;;;;;;;8.63;6.45;;;22.40;75.10;;;;;;4977983;28;20035;-65
2021/08/14 02:23:53;;;;;;;9.77;6.50;;;22.40;76.10;;;;;;4980834;28;20062;-64
2021/08/14 02:26:19;;;;;;;9.73;6.93;;;22.40;74.90;;;;;;4984069;28;20518;-64
2021/08/14 02:28:45;;;;;;;9.77;6.60;;;22.40;75.10;;;;;;4978708;28;20114;-64
2021/08/14 02:31:11;;;;;;;10.30;6.82;;;22.30;74.90;;;;;;4977877;28;20046;-64
2021/08/14 02:33:37;;;;;;;8.32;6.10;;;22.30;75.10;;;;;;4974536;28;20042;-64
2021/08/14 02:36:04;;;;;;;8.18;6.93;;;22.30;75.00;;;;;;4975651;28;20035;-64
2021/08/14 02:38:30;;;;;;;8.98;6.43;;;22.30;76.30;;;;;;4984613;28;20041;-65
2021/08/14 02:40:56;;;;;;;8.15;6.90;;;22.20;75.40;;;;;;4986234;28;20030;-64
2021/08/14 02:43:22;;;;;;;7.78;6.80;;;22.20;75.40;;;;;;4984785;28;20574;-65
2021/08/14 02:45:48;;;;;;;9.85;6.35;;;22.10;75.60;;;;;;4980695;28;21870;-64
2021/08/14 02:48:13;;;;;;;11.02;6.80;;;22.10;75.70;;;;;;4984955;28;20073;-64
2021/08/14 02:50:41;;;;;;;9.38;6.78;;;22.10;75.80;;;;;;4982499;28;20100;-64
2021/08/14 02:53:09;;;;;;;7.72;6.43;;;22.10;76.00;;;;;;4985455;28;20034;-64
2021/08/14 02:55:34;;;;;;;7.78;6.18;;;22.10;75.70;;;;;;4987429;28;20058;-65
2021/08/14 02:58:00;;;;;;;7.20;6.07;;;22.10;75.70;;;;;;4979157;28;20035;-64
2021/08/14 03:00:25;;;;;;;9.27;6.72;;;22.10;75.70;;;;;;4982240;28;20038;-64
2021/08/14 03:02:51;;;;;;;8.43;6.60;;;22.10;76.30;;;;;;4976800;28;20047;-64
2021/08/14 03:05:17;;;;;;;8.55;6.70;;;22.10;75.70;;;;;;4982532;28;20610;-64
2021/08/14 03:07:42;;;;;;;8.48;6.72;;;22.00;75.60;;;;;;4999759;28;20030;-64
2021/08/14 03:10:08;;;;;;;7.82;6.60;;;22.00;75.80;;;;;;4982515;28;20526;-64
2021/08/14 03:12:34;;;;;;;10.20;7.28;;;22.00;75.80;;;;;;4976927;28;20066;-64
2021/08/14 03:15:00;;;;;;;11.00;6.68;;;22.00;75.70;;;;;;4986916;28;20055;-64
2021/08/14 03:17:25;;;;;;;7.07;6.22;;;21.90;75.80;;;;;;4982547;28;20106;-65
2021/08/14 03:19:51;;;;;;;7.22;6.20;;;21.90;76.00;;;;;;4989470;28;20109;-64
2021/08/14 03:22:16;;;;;;;8.35;6.68;;;21.80;75.90;;;;;;4984090;28;20082;-64
2021/08/14 03:24:42;;;;;;;7.55;6.18;;;21.80;75.80;;;;;;4978095;28;20050;-64
2021/08/14 03:27:08;;;;;;;8.32;6.38;;;21.80;75.80;;;;;;4982525;28;20034;-64
2021/08/14 03:29:34;;;;;;;7.78;6.32;;;21.80;75.80;;;;;;4981407;28;20077;-64
2021/08/14 03:32:00;;;;;;;6.93;6.05;;;21.70;75.90;;;;;;4986808;28;20034;-64
2021/08/14 03:34:25;;;;;;;9.95;6.53;;;21.60;75.80;;;;;;4984709;28;20029;-64
2021/08/14 03:36:51;;;;;;;8.18;6.25;;;21.60;76.00;;;;;;4978063;28;20038;-64
2021/08/14 03:39:17;;;;;;;8.82;5.85;;;21.60;76.00;;;;;;4980082;28;20444;-64
2021/08/14 03:41:43;;;;;;;7.45;5.63;;;21.50;76.00;;;;;;4978201;28;20565;-64
2021/08/14 03:44:09;;;;;;;8.23;5.57;;;21.40;76.00;;;;;;4981944;28;20058;-64
2021/08/14 03:46:35;;;;;;;6.28;5.68;;;21.40;76.30;;;;;;4986891;28;20520;-64
2021/08/14 03:49:00;;;;;;;10.23;5.93;;;21.30;76.30;;;;;;4986386;28;20145;-64
2021/08/14 03:51:26;;;;;;;10.80;5.78;;;21.20;76.60;;;;;;4979977;28;20042;-64
2021/08/14 03:53:51;;;;;;;8.32;6.38;;;21.20;76.50;;;;;;4984299;28;20053;-64
2021/08/14 03:56:17;;;;;;;7.82;5.70;;;21.20;76.50;;;;;;4973848;28;20090;-64
2021/08/14 03:58:43;;;;;;;7.75;5.45;;;21.20;76.50;;;;;;4979217;28;20042;-64
2021/08/14 04:01:09;;;;;;;6.40;5.40;;;21.10;76.60;;;;;;4983187;28;20030;-64
2021/08/14 04:03:34;;;;;;;6.45;5.63;;;21.10;76.60;;;;;;4984900;28;20094;-64
2021/08/14 04:06:00;;;;;;;6.82;6.00;;;21.20;76.80;;;;;;4973390;28;20049;-64
2021/08/14 04:08:26;;;;;;;9.57;5.60;;;21.10;77.00;;;;;;4990582;28;20074;-65
2021/08/14 04:10:52;;;;;;;6.60;5.90;;;21.20;77.00;;;;;;4980180;28;20131;-64
2021/08/14 04:13:18;;;;;;;8.18;6.30;;;21.10;77.00;;;;;;4980372;28;20038;-64
2021/08/14 04:15:44;;;;;;;6.63;5.95;;;21.10;77.20;;;;;;4988021;28;20046;-64
2021/08/14 04:18:10;;;;;;;7.05;5.85;;;21.10;77.30;;;;;;5002529;28;20413;-64
2021/08/14 04:20:36;;;;;;;10.88;6.07;;;21.10;77.50;;;;;;4987172;28;20073;-65
2021/08/14 04:23:02;;;;;;;9.68;6.28;;;21.10;77.60;;;;;;4979490;28;20030;-64
2021/08/14 04:25:27;;;;;;;6.30;5.50;;;21.00;77.70;;;;;;4980789;28;20099;-64
2021/08/14 04:27:53;;;;;;;7.20;5.63;;;21.00;77.90;;;;;;4996361;28;20616;-64
2021/08/14 04:30:19;;;;;;;6.30;5.40;;;21.00;77.80;;;;;;4987400;28;20042;-64
2021/08/14 04:32:45;;;;;;;6.18;5.57;;;21.00;77.90;;;;;;4984706;28;20638;-64
2021/08/14 04:35:14;;;;;;;6.97;5.57;;;21.10;77.90;;;;;;4985113;28;20039;-64
2021/08/14 04:37:40;;;;;;;5.72;5.15;;;21.10;78.10;;;;;;4976707;28;20390;-64
2021/08/14 04:40:09;;;;;;;6.13;5.53;;;21.10;77.70;;;;;;4978096;28;20093;-64
2021/08/14 04:42:35;;;;;;;9.80;6.07;;;21.20;77.60;;;;;;4982907;28;20061;-64
2021/08/14 04:45:01;;;;;;;6.72;5.60;;;21.20;77.40;;;;;;4995757;28;20498;-64
2021/08/14 04:47:27;;;;;;;6.70;5.35;;;21.20;77.30;;;;;;4986105;28;20467;-64
2021/08/14 04:49:52;;;;;;;11.73;5.13;;;21.30;77.20;;;;;;4981249;28;20038;-64
2021/08/14 04:52:18;;;;;;;10.00;5.32;;;21.30;77.00;;;;;;4983680;28;20084;-64
2021/08/14 04:54:44;;;;;;;6.95;5.63;;;21.40;77.00;;;;;;4979127;28;20092;-64
2021/08/14 04:57:09;;;;;;;8.32;6.07;;;21.40;77.20;;;;;;4978500;28;20398;-65
2021/08/14 04:59:35;;;;;;;6.57;5.85;;;21.40;77.10;;;;;;4977084;28;20709;-64
2021/08/14 05:02:03;;;;;;;8.45;6.30;;;21.40;77.00;;;;;;4979774;28;20031;-64
2021/08/14 05:04:29;;;;;;;6.35;5.65;;;21.40;77.20;;;;;;4979769;28;20046;-64
2021/08/14 05:06:55;;;;;;;16.90;6.57;;;21.40;77.20;;;;;;4971172;28;20117;-64
2021/08/14 05:09:20;;;;;;;9.07;6.75;;;21.40;77.60;;;;;;4979504;28;20125;-64
2021/08/14 05:11:46;;;;;;;7.80;6.60;;;21.40;77.80;;;;;;4979251;28;20034;-64
2021/08/14 05:14:12;;;;;;;10.25;6.40;;;21.40;77.70;;;;;;4981236;28;20121;-64
2021/08/14 05:16:37;;;;;;;6.95;6.22;;;21.40;77.60;;;;;;4987215;28;20042;-64
2021/08/14 05:19:04;;;;;;;7.15;6.45;;;21.40;77.80;;;;;;4980237;28;20038;-64
2021/08/14 05:21:29;;;;;;;7.35;6.43;;;21.40;78.80;;;;;;4974273;28;20038;-64
2021/08/14 05:23:56;;;;;;;10.23;6.30;;;21.40;78.00;;;;;;4971062;28;20041;-64
2021/08/14 05:26:22;;;;;;;8.30;6.47;;;21.40;78.00;;;;;;4978113;28;20050;-64
2021/08/14 05:28:47;;;;;;;7.10;5.85;;;21.40;78.00;;;;;;4971711;28;20035;-64
2021/08/14 05:31:13;;;;;;;9.27;7.15;;;21.40;77.90;;;;;;4973932;28;20037;-64
2021/08/14 05:33:39;;;;;;;8.85;6.50;;;21.40;78.10;;;;;;4982073;28;20034;-64
2021/08/14 05:36:08;;;;;;;13.80;6.53;;;21.50;78.20;;;;;;4981842;28;20030;-64
2021/08/14 05:38:33;;;;;;;8.73;6.32;;;21.50;78.00;;;;;;4980107;28;20307;-64
2021/08/14 05:40:59;;;;;;;9.38;6.35;;;21.60;78.20;;;;;;4976647;28;20041;-64
2021/08/14 05:43:25;;;;;;;7.55;6.35;;;21.60;78.30;;;;;;4983672;28;20874;-64
2021/08/14 05:45:50;;;;;;;7.93;6.38;;;21.70;78.90;;;;;;4980291;28;20069;-64
2021/08/14 05:48:18;;;;;;;10.40;6.18;;;21.70;78.00;;;;;;4974991;28;20046;-64
2021/08/14 05:50:44;;;;;;;6.88;6.18;;;21.70;77.90;;;;;;4979577;28;20048;-64
2021/08/14 05:53:10;;;;;;;10.40;6.65;;;21.80;78.00;;;;;;4977380;28;20118;-64
2021/08/14 05:55:35;;;;;;;7.03;6.30;;;21.80;78.00;;;;;;4978111;28;20129;-64
2021/08/14 05:58:01;;;;;;;12.50;6.88;;;21.90;78.00;;;;;;4981179;28;20128;-64
2021/08/14 06:00:27;;;;;;;9.90;6.78;;;21.90;77.70;;;;;;4987803;28;20031;-64
2021/08/14 06:02:52;;;;;;;9.90;6.43;;;22.00;77.90;;;;;;4979407;28;20046;-65
2021/08/14 06:05:18;;;;;;;11.07;6.80;;;22.10;77.90;;;;;;4977835;28;20050;-64
2021/08/14 06:07:46;;;;;;;8.93;6.57;;;22.20;77.70;;;;;;4988443;28;20031;-64
2021/08/14 06:10:12;;;;;;;7.45;6.68;;;22.20;77.70;;;;;;4973170;28;20560;-64
2021/08/14 06:12:37;;;;;;;8.30;7.03;;;22.20;77.90;;;;;;4974718;28;20094;-64
2021/08/14 06:15:04;;;;;;;11.05;7.30;;;22.30;77.80;;;;;;4978316;28;20035;-64
2021/08/14 06:17:29;;;;;;;8.45;7.43;;;22.40;77.90;;;;;;4986235;28;20034;-64
2021/08/14 06:19:55;;;;;;;8.32;7.30;;;22.40;77.70;;;;;;4981785;28;20037;-64
2021/08/14 06:22:20;;;;;;;7.47;6.65;;;22.50;77.70;;;;;;4979183;28;20522;-64
2021/08/14 06:24:46;;;;;;;8.10;7.30;;;22.60;77.50;;;;;;4975146;28;20133;-64
2021/08/14 06:27:12;;;;;;;10.32;8.23;;;22.60;77.70;;;;;;4973997;28;20138;-64
2021/08/14 06:29:37;;;;;;;9.90;8.45;;;22.70;77.50;;;;;;4971221;28;20922;-64
2021/08/14 06:32:03;;;;;;;15.27;8.82;;;22.70;77.30;;;;;;4970106;28;20034;-64
2021/08/14 06:34:29;;;;;;;14.70;8.27;;;22.70;77.20;;;;;;4972366;28;20423;-65
2021/08/14 06:36:54;;;;;;;9.98;7.82;;;22.80;77.20;;;;;;4979789;28;20038;-64
2021/08/14 06:39:20;;;;;;;10.70;7.97;;;22.80;77.20;;;;;;4977426;28;20027;-64
2021/08/14 06:41:46;;;;;;;9.50;7.80;;;22.80;76.60;;;;;;4972920;28;20073;-65
2021/08/14 06:44:11;;;;;;;10.02;8.32;;;22.90;76.70;;;;;;4970719;28;20026;-64
2021/08/14 06:46:37;;;;;;;19.25;8.32;;;22.90;76.60;;;;;;4970112;28;20047;-64
2021/08/14 06:49:03;;;;;;;9.18;8.13;;;22.90;76.40;;;;;;4971493;28;20054;-64
2021/08/14 06:51:30;;;;;;;8.93;8.07;;;23.00;76.20;;;;;;4971101;28;20552;-65
2021/08/14 06:53:57;;;;;;;10.88;8.60;;;23.00;76.30;;;;;;4971010;28;20045;-65
2021/08/14 06:56:23;;;;;;;9.30;8.25;;;23.10;76.00;;;;;;4969642;28;20045;-63
2021/08/14 06:58:48;;;;;;;10.50;8.38;;;23.10;75.60;;;;;;4976463;28;20036;-64
2021/08/14 07:01:14;;;;;;;10.75;8.35;;;23.20;75.80;;;;;;4969595;28;20039;-64
2021/08/14 07:03:40;;;;;;;9.05;8.15;;;23.30;75.80;;;;;;4965962;28;20200;-65
2021/08/14 07:06:05;;;;;;;10.13;8.10;;;23.30;75.60;;;;;;4970093;28;20506;-65
2021/08/14 07:08:31;;;;;;;9.75;7.93;;;23.40;75.40;;;;;;4970788;28;20051;-65
2021/08/14 07:10:56;;;;;;;9.48;8.25;;;23.40;75.30;;;;;;4967829;28;20093;-64
2021/08/14 07:13:22;;;;;;;10.52;8.23;;;23.50;75.30;;;;;;4972348;28;20513;-64
2021/08/14 07:15:48;;;;;;;10.38;8.90;;;23.50;75.30;;;;;;4972648;28;20521;-64
2021/08/14 07:18:13;;;;;;;10.23;8.20;;;23.60;75.30;;;;;;4980932;28;20584;-64
2021/08/14 07:20:39;;;;;;;8.50;7.57;;;23.70;75.10;;;;;;4966397;28;20050;-64
2021/08/14 07:23:05;;;;;;;9.27;7.35;;;23.80;74.90;;;;;;4978456;28;20030;-64
2021/08/14 07:25:30;;;;;;;8.55;7.18;;;23.90;74.90;;;;;;4987977;28;20106;-64
2021/08/14 07:27:56;;;;;;;9.00;8.05;;;23.90;74.60;;;;;;4980465;28;20026;-64
2021/08/14 07:30:22;;;;;;;8.45;7.50;;;24.00;74.40;;;;;;4971421;28;20034;-64
2021/08/14 07:32:47;;;;;;;8.27;6.78;;;24.10;74.20;;;;;;4972705;28;20035;-64
2021/08/14 07:35:13;;;;;;;7.57;6.88;;;24.20;74.20;;;;;;4974419;28;20082;-64
2021/08/14 07:37:49;;;;;;;8.82;7.53;;;24.20;73.70;;;;;;4967213;28;20518;-64
2021/08/14 07:40:17;;;;;;;10.15;6.60;;;24.40;73.30;;;;;;4955973;28;20039;-65
2021/08/14 07:42:42;;;;;;;8.25;6.93;;;24.40;72.80;;;;;;4955467;28;20124;-65
2021/08/14 07:45:10;;;;;;;10.25;6.72;;;24.50;72.50;;;;;;4972733;28;20458;-65
2021/08/14 07:47:35;;;;;;;8.75;5.63;;;24.60;72.80;;;;;;4956403;28;20042;-65
2021/08/14 07:50:01;;;;;;;5.85;5.00;;;24.70;71.70;;;;;;4956082;28;20628;-65
2021/08/14 07:52:27;;;;;;;8.13;5.35;;;24.80;70.90;;;;;;4954407;28;20487;-65
2021/08/14 07:54:52;;;;;;;6.68;5.05;;;24.80;69.30;;;;;;4955441;28;20046;-65
2021/08/14 07:57:18;;;;;;;6.55;5.50;;;24.90;69.50;;;;;;4962717;28;20034;-65
2021/08/14 07:59:43;;;;;;;5.90;5.30;;;25.00;69.60;;;;;;4966553;28;20043;-65
2021/08/14 08:02:09;;;;;;;5.97;5.38;;;25.10;69.90;;;;;;4955959;28;20046;-65
2021/08/14 08:04:34;;;;;;;7.85;5.30;;;25.10;69.30;;;;;;4970643;28;20724;-65
2021/08/14 08:07:00;;;;;;;6.28;5.25;;;25.20;69.10;;;;;;4955498;28;20035;-65
2021/08/14 08:09:26;;;;;;;10.45;5.05;;;25.30;69.30;;;;;;4952364;28;20043;-65
2021/08/14 08:11:51;;;;;;;15.60;5.88;;;25.40;69.20;;;;;;4951880;28;20147;-65
2021/08/14 08:14:17;;;;;;;6.38;5.25;;;25.40;69.10;;;;;;4961871;28;20031;-65
2021/08/14 08:16:42;;;;;;;5.30;4.80;;;25.50;68.50;;;;;;4952261;28;20520;-65
2021/08/14 08:19:08;;;;;;;8.20;5.80;;;25.60;68.20;;;;;;4949472;28;20047;-65
2021/08/14 08:21:34;;;;;;;5.20;4.60;;;25.70;67.80;;;;;;4959492;28;20035;-65
2021/08/14 08:24:00;;;;;;;6.90;4.97;;;25.70;67.00;;;;;;4956077;28;20066;-65
2021/08/14 08:26:25;;;;;;;6.07;5.18;;;25.80;66.50;;;;;;4958603;28;20077;-64
2021/08/14 08:28:52;;;;;;;6.95;5.32;;;25.90;66.60;;;;;;4962140;28;20045;-65
2021/08/14 08:31:17;;;;;;;6.20;5.18;;;26.00;66.30;;;;;;4960055;28;20122;-65
2021/08/14 08:33:43;;;;;;;6.35;4.88;;;26.10;66.40;;;;;;4956994;28;20039;-65
2021/08/14 08:36:09;;;;;;;5.03;4.45;;;26.20;66.00;;;;;;4957049;28;20445;-65
2021/08/14 08:38:34;;;;;;;15.73;5.22;;;26.20;65.00;;;;;;4954097;28;20084;-65
2021/08/14 08:41:00;;;;;;;6.65;5.18;;;26.30;64.90;;;;;;4954838;28;20534;-65
2021/08/14 08:43:26;;;;;;;5.85;4.68;;;26.40;64.80;;;;;;4953552;28;20165;-65
2021/08/14 08:45:52;;;;;;;6.38;5.28;;;26.40;64.70;;;;;;4964822;28;20205;-65
2021/08/14 08:48:19;;;;;;;6.40;5.03;;;26.60;64.20;;;;;;4955208;28;20050;-65
2021/08/14 08:50:47;;;;;;;6.85;5.13;;;26.60;64.20;;;;;;4951437;28;20043;-65
2021/08/14 08:53:13;;;;;;;5.22;4.53;;;26.70;64.10;;;;;;4953497;28;20525;-65
2021/08/14 08:55:39;;;;;;;6.35;4.93;;;26.80;63.90;;;;;;4956140;28;20050;-65
2021/08/14 08:58:05;;;;;;;5.30;4.80;;;26.80;63.60;;;;;;4956364;28;20068;-65
2021/08/14 09:00:30;;;;;;;5.50;4.95;;;26.90;63.30;;;;;;4963545;28;20125;-65
2021/08/14 09:03:11;;;;;;;6.35;4.82;;;27.00;62.70;;;;;;4952397;28;20481;-65
2021/08/14 09:05:49;;;;;;;5.28;4.78;;;27.10;61.40;;;;;;4955717;28;20043;-65
2021/08/14 09:08:15;;;;;;;5.68;4.70;;;27.10;60.80;;;;;;4951309;28;20362;-65
2021/08/14 09:10:40;;;;;;;5.70;4.80;;;27.20;61.60;;;;;;4952769;28;20050;-65
2021/08/14 09:13:17;;;;;;;7.47;4.55;;;27.20;61.40;;;;;;4951812;28;20035;-65
2021/08/14 09:15:43;;;;;;;5.60;4.82;;;27.30;60.60;;;;;;4980133;28;20514;-65
2021/08/14 09:18:11;;;;;;;7.40;5.07;;;27.30;60.70;;;;;;4955432;28;20685;-65
2021/08/14 09:20:54;;;;;;;5.32;4.63;;;27.40;59.90;;;;;;4953864;28;20039;-65
2021/08/14 09:23:24;;;;;;;5.28;4.75;;;27.50;60.10;;;;;;4953325;28;20026;-65
2021/08/14 09:25:50;;;;;;;6.50;4.55;;;27.60;60.90;;;;;;4956511;28;20035;-65
2021/08/14 09:28:18;;;;;;;5.75;5.05;;;27.60;61.30;;;;;;4952809;28;20151;-65
2021/08/14 09:30:47;;;;;;;5.18;4.68;;;27.70;60.70;;;;;;4974757;28;20043;-65
2021/08/14 09:33:15;;;;;;;6.18;5.00;;;27.80;60.60;;;;;;4953375;28;20097;-65
2021/08/14 09:35:43;;;;;;;8.57;4.97;;;27.90;61.00;;;;;;4954701;28;20050;-65
2021/08/14 09:38:14;;;;;;;5.30;4.35;;;27.90;60.20;;;;;;4954403;28;20085;-65
2021/08/14 09:40:45;;;;;;;6.72;4.80;;;28.00;59.40;;;;;;4954488;28;20031;-65
2021/08/14 09:43:13;;;;;;;4.90;3.97;;;28.10;59.20;;;;;;4951622;28;20125;-65
2021/08/14 09:45:51;;;;;;;5.13;4.03;;;28.20;58.50;;;;;;4953214;28;20027;-65
2021/08/14 09:48:19;;;;;;;5.90;4.43;;;28.20;58.40;;;;;;4956873;28;20050;-65
2021/08/14 09:50:45;;;;;;;4.55;4.15;;;28.40;58.00;;;;;;4968251;28;20852;-65
2021/08/14 09:53:31;;;;;;;5.57;4.55;;;28.50;57.70;;;;;;4950241;28;20035;-65
2021/08/14 09:56:06;;;;;;;5.72;4.43;;;28.50;57.00;;;;;;4949085;28;20034;-65
2021/08/14 09:58:32;;;;;;;5.28;4.43;;;28.60;57.50;;;;;;4952777;28;20038;-65
2021/08/14 10:01:00;;;;;;;4.93;4.38;;;28.70;58.00;;;;;;4951787;28;20402;-65
2021/08/14 10:03:28;;;;;;;5.45;4.38;;;28.70;57.70;;;;;;4966541;28;20035;-65
2021/08/14 10:05:54;;;;;;;5.03;4.20;;;28.80;57.40;;;;;;4974942;28;20034;-65
2021/08/14 10:08:21;;;;;;;5.78;4.35;;;28.90;57.40;;;;;;4974673;28;20417;-65
2021/08/14 10:10:47;;;;;;;5.93;4.32;;;29.00;57.20;;;;;;4977450;28;20644;-65
2021/08/14 10:13:13;;;;;;;4.88;4.47;;;29.00;57.20;;;;;;4976687;28;20498;-65
2021/08/14 10:15:39;;;;;;;5.45;4.00;;;29.10;57.20;;;;;;4982053;28;20046;-65
2021/08/14 10:18:05;;;;;;;5.57;4.35;;;29.20;56.50;;;;;;4977613;28;20034;-65
2021/08/14 10:20:32;;;;;;;4.35;3.95;;;29.30;57.50;;;;;;4978102;28;20430;-64
2021/08/14 10:23:02;;;;;;;5.50;4.43;;;29.30;56.30;;;;;;4976239;28;20391;-65
2021/08/14 10:25:29;;;;;;;4.57;4.13;;;29.30;55.50;;;;;;4976116;28;20033;-65
2021/08/14 10:27:58;;;;;;;5.40;4.38;;;29.40;55.70;;;;;;4980494;28;20383;-65
2021/08/14 10:30:47;;;;;;;7.25;4.45;;;29.40;55.70;;;;;;4980881;28;20034;-65
2021/08/14 10:33:27;;;;;;;4.70;4.30;;;29.50;55.50;;;;;;4976428;28;20069;-65
2021/08/14 10:36:17;;;;;;;7.30;4.57;;;29.60;56.10;;;;;;4974817;28;20504;-65
2021/08/14 10:38:45;;;;;;;5.95;4.15;;;29.60;55.90;;;;;;4968103;28;20058;-65
2021/08/14 10:41:12;;;;;;;7.70;4.28;;;29.60;55.50;;;;;;4977979;28;20121;-65
2021/08/14 10:43:57;;;;;;;6.55;4.57;;;29.70;55.70;;;;;;4974228;28;20742;-65
2021/08/14 10:46:35;;;;;;;5.85;4.38;;;29.70;54.50;;;;;;4981750;28;20096;-66
2021/08/14 10:49:01;;;;;;;5.50;4.35;;;29.70;55.30;;;;;;4988436;28;20047;-64
2021/08/14 10:51:51;;;;;;;5.80;4.22;;;29.80;55.00;;;;;;4977937;28;20038;-65
2021/08/14 10:54:30;;;;;;;6.78;4.30;;;29.80;53.20;;;;;;4981122;28;20077;-65
2021/08/14 10:56:56;;;;;;;7.80;4.20;;;29.80;53.70;;;;;;4972148;28;20189;-65
2021/08/14 10:59:37;;;;;;;4.55;4.07;;;29.80;54.60;;;;;;4988101;28;20414;-65
2021/08/14 11:02:06;;;;;;;4.38;4.00;;;29.80;53.10;;;;;;4976644;28;20034;-65
2021/08/14 11:04:58;;;;;;;4.28;3.90;;;29.80;54.00;;;;;;4980560;28;20050;-65
2021/08/14 11:07:23;;;;;;;5.35;4.68;;;29.80;53.90;;;;;;4978403;28;20113;-65
2021/08/14 11:10:11;;;;;;;4.57;4.00;;;29.80;54.40;;;;;;4983950;28;20125;-65
2021/08/14 11:12:39;;;;;;;5.38;4.32;;;29.80;54.10;;;;;;4981680;28;20125;-65
2021/08/14 11:15:14;;;;;;;5.63;4.25;;;29.90;54.20;;;;;;4984943;28;20034;-65
2021/08/14 11:17:40;;;;;;;6.40;4.10;;;29.90;54.20;;;;;;4986431;28;20034;-65
2021/08/14 11:20:30;;;;;;;8.10;4.53;;;29.90;54.50;;;;;;4985290;28;20042;-65
2021/08/14 11:22:58;;;;;;;7.13;4.50;;;30.00;52.60;;;;;;4992604;28;20037;-65
2021/08/14 11:25:40;;;;;;;5.60;4.18;;;30.00;52.70;;;;;;5002348;28;20109;-65
2021/08/14 11:28:11;;;;;;;8.95;4.80;;;30.00;52.80;;;;;;4987162;28;20038;-65
2021/08/14 11:30:47;;;;;;;8.32;4.20;;;29.90;53.10;;;;;;4986056;28;20042;-65
2021/08/14 11:33:15;;;;;;;4.45;4.03;;;29.90;54.00;;;;;;4985728;28;20040;-65
2021/08/14 11:35:41;;;;;;;5.20;3.78;;;29.80;53.80;;;;;;4986999;28;20081;-65
2021/08/14 11:38:09;;;;;;;20.60;4.05;;;29.90;54.10;;;;;;4996088;28;20037;-65
2021/08/14 11:40:40;;;;;;;6.93;4.28;;;30.00;54.20;;;;;;4986385;28;20038;-65
2021/08/14 11:43:08;;;;;;;4.65;4.10;;;30.00;54.30;;;;;;4986065;28;20033;-65
2021/08/14 11:45:38;;;;;;;5.68;4.40;;;30.00;53.80;;;;;;4987156;28;20121;-65
2021/08/14 11:48:12;;;;;;;6.10;4.20;;;30.10;54.40;;;;;;4984602;28;20038;-65
2021/08/14 11:50:43;;;;;;;5.83;4.23;;;30.20;53.50;;;;;;4981476;28;20046;-65
2021/08/14 11:53:12;;;;;;;6.22;4.05;;;30.20;53.60;;;;;;4984645;28;20273;-65
2021/08/14 11:55:38;;;;;;;6.55;4.03;;;30.20;54.00;;;;;;4982120;28;20034;-65
2021/08/14 11:58:04;;;;;;;6.95;4.25;;;30.30;53.80;;;;;;4992846;28;20057;-65
2021/08/14 12:00:35;;;;;;;5.43;4.22;;;30.30;53.60;;;;;;4986255;28;20139;-64
2021/08/14 12:03:12;;;;;;;7.03;4.70;;;30.40;53.60;;;;;;4981484;28;20034;-65
2021/08/14 12:05:41;;;;;;;5.97;4.50;;;30.40;53.10;;;;;;4987072;28;20042;-65
2021/08/14 12:08:08;;;;;;;6.38;4.50;;;30.50;53.40;;;;;;4986677;28;20089;-65
2021/08/14 12:10:35;;;;;;;4.72;4.20;;;30.50;53.50;;;;;;4997580;28;20287;-65
2021/08/14 12:13:03;;;;;;;8.32;3.88;;;30.60;53.30;;;;;;4988187;28;20089;-65
2021/08/14 12:15:43;;;;;;;4.45;4.00;;;30.60;53.20;;;;;;4984617;28;20026;-65
2021/08/14 12:18:10;;;;;;;6.60;4.40;;;30.70;52.50;;;;;;4988015;28;20180;-65
2021/08/14 12:20:41;;;;;;;8.02;4.30;;;30.70;52.80;;;;;;4985401;28;20062;-65
2021/08/14 12:23:30;;;;;;;8.63;4.25;;;30.70;53.20;;;;;;4994220;28;20031;-65
2021/08/14 12:25:58;;;;;;;8.32;4.38;;;30.80;52.80;;;;;;4980432;28;20046;-65
2021/08/14 12:28:25;;;;;;;5.88;4.43;;;30.90;52.60;;;;;;4980917;28;20038;-64
2021/08/14 12:30:51;;;;;;;7.85;4.53;;;30.90;52.50;;;;;;4976605;28;20046;-65
2021/08/14 12:33:25;;;;;;;6.60;4.32;;;30.90;52.50;;;;;;4979780;28;20041;-65
2021/08/14 12:36:03;;;;;;;6.20;4.20;;;30.90;52.70;;;;;;4979766;28;20030;-65
2021/08/14 12:38:30;;;;;;;9.35;4.80;;;30.90;52.40;;;;;;4983560;28;20321;-65
2021/08/14 12:40:57;;;;;;;5.22;4.03;;;30.90;52.70;;;;;;4973949;28;20034;-65
2021/08/14 12:43:23;;;;;;;6.55;4.60;;;30.90;52.30;;;;;;4984154;28;20054;-65
2021/08/14 12:45:50;;;;;;;5.88;4.35;;;30.90;52.40;;;;;;4978584;28;20509;-65